sensor_id;sensor_type;location;lat;lon;timestamp;P1;durP1;ratioP1;P2;durP2;ratioP2
56581;SDS011;42463;52.214;21.238;2023-06-10T00:00:15;14.10;;;12.10;;
56581;SDS011;42463;52.214;21.238;2023-06-10T00:02:41;14.40;;;13.00;;
56581;SDS011;42463;52.214;21.238;2023-06-10T00:04:46;14.50;;;12.60;;
56581;SDS011;42463;52.214;21.238;2023-06-10T00:06:52;14.40;;;12.30;;
56581;SDS011;42463;52.214;21.238;2023-06-10T00:08:58;14.60;;;13.10;;
56581;SDS011;42463;52.214;21.238;2023-06-10T00:11:03;15.10;;;13.00;;
56581;SDS011;42463;52.214;21.238;2023-06-10T00:13:09;14.10;;;12.70;;
56581;SDS011;42463;52.214;21.238;2023-06-10T00:15:14;14.80;;;12.60;;
56581;SDS011;42463;52.214;21.238;2023-06-10T00:17:20;15.20;;;12.90;;
56581;SDS011;42463;52.214;21.238;2023-06-10T00:19:26;15.80;;;11.70;;
56581;SDS011;42463;52.214;21.238;2023-06-10T00:21:33;14.00;;;12.60;;
56581;SDS011;42463;52.214;21.238;2023-06-10T00:23:40;14.50;;;12.60;;
56581;SDS011;42463;52.214;21.238;2023-06-10T00:25:46;12.80;;;11.40;;
56581;SDS011;42463;52.214;21.238;2023-06-10T00:27:51;13.10;;;11.20;;
56581;SDS011;42463;52.214;21.238;2023-06-10T00:29:58;12.20;;;10.90;;
56581;SDS011;42463;52.214;21.238;2023-06-10T00:32:04;15.50;;;10.90;;
56581;SDS011;42463;52.214;21.238;2023-06-10T00:34:11;12.60;;;11.30;;
56581;SDS011;42463;52.214;21.238;2023-06-10T00:36:17;11.50;;;10.30;;
56581;SDS011;42463;52.214;21.238;2023-06-10T00:38:23;11.90;;;10.40;;
56581;SDS011;42463;52.214;21.238;2023-06-10T00:40:28;11.90;;;10.60;;
56581;SDS011;42463;52.214;21.238;2023-06-10T00:42:35;11.00;;;10.00;;
56581;SDS011;42463;52.214;21.238;2023-06-10T00:44:40;11.20;;;9.50;;
56581;SDS011;42463;52.214;21.238;2023-06-10T00:46:46;11.20;;;10.10;;
56581;SDS011;42463;52.214;21.238;2023-06-10T00:48:54;12.10;;;10.00;;
56581;SDS011;42463;52.214;21.238;2023-06-10T00:51:00;11.30;;;9.00;;
56581;SDS011;42463;52.214;21.238;2023-06-10T00:53:05;12.40;;;10.30;;
56581;SDS011;42463;52.214;21.238;2023-06-10T00:55:13;12.00;;;10.60;;
56581;SDS011;42463;52.214;21.238;2023-06-10T00:57:20;10.30;;;9.20;;
56581;SDS011;42463;52.214;21.238;2023-06-10T00:59:25;10.00;;;8.40;;
56581;SDS011;42463;52.214;21.238;2023-06-10T01:03:48;12.00;;;9.30;;
56581;SDS011;42463;52.214;21.238;2023-06-10T01:05:57;11.20;;;8.60;;
56581;SDS011;42463;52.214;21.238;2023-06-10T01:08:17;9.40;;;8.40;;
56581;SDS011;42463;52.214;21.238;2023-06-10T01:10:35;9.20;;;8.30;;
56581;SDS011;42463;52.214;21.238;2023-06-10T01:12:43;10.00;;;8.50;;
56581;SDS011;42463;52.214;21.238;2023-06-10T01:14:55;11.40;;;8.20;;
56581;SDS011;42463;52.214;21.238;2023-06-10T01:17:02;11.00;;;8.40;;
56581;SDS011;42463;52.214;21.238;2023-06-10T01:19:08;9.60;;;8.30;;
56581;SDS011;42463;52.214;21.238;2023-06-10T01:21:19;11.70;;;8.70;;
56581;SDS011;42463;52.214;21.238;2023-06-10T01:23:27;10.00;;;8.50;;
56581;SDS011;42463;52.214;21.238;2023-06-10T01:25:33;13.80;;;8.40;;
56581;SDS011;42463;52.214;21.238;2023-06-10T01:27:40;10.00;;;8.10;;
56581;SDS011;42463;52.214;21.238;2023-06-10T01:29:50;8.30;;;7.50;;
56581;SDS011;42463;52.214;21.238;2023-06-10T01:32:01;10.80;;;8.10;;
56581;SDS011;42463;52.214;21.238;2023-06-10T01:34:11;10.00;;;8.00;;
56581;SDS011;42463;52.214;21.238;2023-06-10T01:36:21;10.20;;;7.80;;
56581;SDS011;42463;52.214;21.238;2023-06-10T01:38:27;8.00;;;7.00;;
56581;SDS011;42463;52.214;21.238;2023-06-10T01:40:37;9.50;;;6.80;;
56581;SDS011;42463;52.214;21.238;2023-06-10T01:42:44;9.90;;;7.00;;
56581;SDS011;42463;52.214;21.238;2023-06-10T01:44:49;9.20;;;7.30;;
56581;SDS011;42463;52.214;21.238;2023-06-10T01:46:55;9.80;;;7.20;;
56581;SDS011;42463;52.214;21.238;2023-06-10T01:49:01;9.20;;;7.60;;
56581;SDS011;42463;52.214;21.238;2023-06-10T01:51:06;11.40;;;7.80;;
56581;SDS011;42463;52.214;21.238;2023-06-10T01:53:13;8.50;;;6.30;;
56581;SDS011;42463;52.214;21.238;2023-06-10T01:55:18;10.30;;;6.50;;
56581;SDS011;42463;52.214;21.238;2023-06-10T01:57:24;9.60;;;6.40;;
56581;SDS011;42463;52.214;21.238;2023-06-10T01:59:29;9.50;;;6.50;;
56581;SDS011;42463;52.214;21.238;2023-06-10T02:01:35;7.90;;;6.10;;
56581;SDS011;42463;52.214;21.238;2023-06-10T02:03:40;11.00;;;6.30;;
56581;SDS011;42463;52.214;21.238;2023-06-10T02:05:46;10.40;;;6.20;;
56581;SDS011;42463;52.214;21.238;2023-06-10T02:07:52;9.10;;;6.20;;
56581;SDS011;42463;52.214;21.238;2023-06-10T02:09:58;8.70;;;6.60;;
56581;SDS011;42463;52.214;21.238;2023-06-10T02:12:06;9.30;;;6.40;;
56581;SDS011;42463;52.214;21.238;2023-06-10T02:14:14;7.40;;;6.20;;
56581;SDS011;42463;52.214;21.238;2023-06-10T02:16:19;7.30;;;6.20;;
56581;SDS011;42463;52.214;21.238;2023-06-10T02:18:25;8.10;;;6.30;;
56581;SDS011;42463;52.214;21.238;2023-06-10T02:20:31;8.40;;;6.10;;
56581;SDS011;42463;52.214;21.238;2023-06-10T02:22:37;11.30;;;6.70;;
56581;SDS011;42463;52.214;21.238;2023-06-10T02:24:44;10.40;;;6.10;;
56581;SDS011;42463;52.214;21.238;2023-06-10T02:26:49;7.60;;;6.10;;
56581;SDS011;42463;52.214;21.238;2023-06-10T02:28:55;11.20;;;6.70;;
56581;SDS011;42463;52.214;21.238;2023-06-10T02:31:01;9.90;;;6.00;;
56581;SDS011;42463;52.214;21.238;2023-06-10T02:33:07;9.40;;;6.20;;
56581;SDS011;42463;52.214;21.238;2023-06-10T02:35:13;9.00;;;5.80;;
56581;SDS011;42463;52.214;21.238;2023-06-10T02:37:20;9.30;;;5.80;;
56581;SDS011;42463;52.214;21.238;2023-06-10T02:39:25;8.20;;;5.70;;
56581;SDS011;42463;52.214;21.238;2023-06-10T02:41:31;7.50;;;5.90;;
56581;SDS011;42463;52.214;21.238;2023-06-10T02:43:37;10.40;;;6.10;;
56581;SDS011;42463;52.214;21.238;2023-06-10T02:45:43;8.10;;;5.60;;
56581;SDS011;42463;52.214;21.238;2023-06-10T02:47:51;7.50;;;5.70;;
56581;SDS011;42463;52.214;21.238;2023-06-10T02:49:56;8.70;;;6.10;;
56581;SDS011;42463;52.214;21.238;2023-06-10T02:52:02;8.50;;;6.00;;
56581;SDS011;42463;52.214;21.238;2023-06-10T02:54:10;9.40;;;6.20;;
56581;SDS011;42463;52.214;21.238;2023-06-10T02:56:18;8.50;;;5.70;;
56581;SDS011;42463;52.214;21.238;2023-06-10T02:58:24;10.20;;;5.80;;
56581;SDS011;42463;52.214;21.238;2023-06-10T03:00:32;7.90;;;5.80;;
56581;SDS011;42463;52.214;21.238;2023-06-10T03:02:38;10.30;;;5.60;;
56581;SDS011;42463;52.214;21.238;2023-06-10T03:04:45;9.60;;;5.50;;
56581;SDS011;42463;52.214;21.238;2023-06-10T03:06:53;10.20;;;6.00;;
56581;SDS011;42463;52.214;21.238;2023-06-10T03:09:06;8.60;;;5.70;;
56581;SDS011;42463;52.214;21.238;2023-06-10T03:11:12;8.70;;;5.20;;
56581;SDS011;42463;52.214;21.238;2023-06-10T03:13:17;7.40;;;5.40;;
56581;SDS011;42463;52.214;21.238;2023-06-10T03:15:24;9.00;;;5.20;;
56581;SDS011;42463;52.214;21.238;2023-06-10T03:17:32;7.70;;;5.50;;
56581;SDS011;42463;52.214;21.238;2023-06-10T03:19:38;9.50;;;5.90;;
56581;SDS011;42463;52.214;21.238;2023-06-10T03:21:44;9.70;;;5.70;;
56581;SDS011;42463;52.214;21.238;2023-06-10T03:23:53;9.20;;;5.50;;
56581;SDS011;42463;52.214;21.238;2023-06-10T03:25:59;9.20;;;5.50;;
56581;SDS011;42463;52.214;21.238;2023-06-10T03:28:05;7.50;;;5.50;;
56581;SDS011;42463;52.214;21.238;2023-06-10T03:30:12;8.50;;;5.60;;
56581;SDS011;42463;52.214;21.238;2023-06-10T03:32:18;7.80;;;5.80;;
56581;SDS011;42463;52.214;21.238;2023-06-10T03:34:24;13.50;;;5.80;;
56581;SDS011;42463;52.214;21.238;2023-06-10T03:36:30;9.10;;;5.30;;
56581;SDS011;42463;52.214;21.238;2023-06-10T03:38:35;8.10;;;5.30;;
56581;SDS011;42463;52.214;21.238;2023-06-10T03:40:41;9.70;;;5.80;;
56581;SDS011;42463;52.214;21.238;2023-06-10T03:42:46;9.40;;;6.70;;
56581;SDS011;42463;52.214;21.238;2023-06-10T03:44:53;7.70;;;4.90;;
56581;SDS011;42463;52.214;21.238;2023-06-10T03:46:59;8.00;;;5.30;;
56581;SDS011;42463;52.214;21.238;2023-06-10T03:49:05;6.20;;;5.40;;
56581;SDS011;42463;52.214;21.238;2023-06-10T03:51:12;10.10;;;5.70;;
56581;SDS011;42463;52.214;21.238;2023-06-10T03:53:18;8.80;;;5.40;;
56581;SDS011;42463;52.214;21.238;2023-06-10T03:55:23;11.20;;;5.50;;
56581;SDS011;42463;52.214;21.238;2023-06-10T03:57:31;8.00;;;5.40;;
56581;SDS011;42463;52.214;21.238;2023-06-10T03:59:37;8.20;;;5.30;;
56581;SDS011;42463;52.214;21.238;2023-06-10T04:01:42;7.20;;;5.20;;
56581;SDS011;42463;52.214;21.238;2023-06-10T04:03:48;10.60;;;5.10;;
56581;SDS011;42463;52.214;21.238;2023-06-10T04:05:54;8.10;;;5.70;;
56581;SDS011;42463;52.214;21.238;2023-06-10T04:08:02;9.10;;;5.60;;
56581;SDS011;42463;52.214;21.238;2023-06-10T04:10:08;8.90;;;5.40;;
56581;SDS011;42463;52.214;21.238;2023-06-10T04:12:14;10.20;;;5.30;;
56581;SDS011;42463;52.214;21.238;2023-06-10T04:14:20;6.70;;;5.70;;
56581;SDS011;42463;52.214;21.238;2023-06-10T04:16:26;10.80;;;5.80;;
56581;SDS011;42463;52.214;21.238;2023-06-10T04:18:31;9.30;;;5.70;;
56581;SDS011;42463;52.214;21.238;2023-06-10T04:20:41;7.90;;;5.10;;
56581;SDS011;42463;52.214;21.238;2023-06-10T04:22:47;7.70;;;5.50;;
56581;SDS011;42463;52.214;21.238;2023-06-10T04:24:53;11.60;;;5.60;;
56581;SDS011;42463;52.214;21.238;2023-06-10T04:26:59;9.70;;;5.70;;
56581;SDS011;42463;52.214;21.238;2023-06-10T04:29:05;8.10;;;5.70;;
56581;SDS011;42463;52.214;21.238;2023-06-10T04:31:10;10.20;;;5.40;;
56581;SDS011;42463;52.214;21.238;2023-06-10T04:33:17;8.40;;;5.70;;
56581;SDS011;42463;52.214;21.238;2023-06-10T04:35:22;6.60;;;5.20;;
56581;SDS011;42463;52.214;21.238;2023-06-10T04:37:29;8.80;;;5.40;;
56581;SDS011;42463;52.214;21.238;2023-06-10T04:39:35;7.50;;;5.70;;
56581;SDS011;42463;52.214;21.238;2023-06-10T04:41:41;8.20;;;5.40;;
56581;SDS011;42463;52.214;21.238;2023-06-10T04:43:46;12.20;;;5.50;;
56581;SDS011;42463;52.214;21.238;2023-06-10T04:45:52;10.60;;;5.60;;
56581;SDS011;42463;52.214;21.238;2023-06-10T04:47:57;9.70;;;6.00;;
56581;SDS011;42463;52.214;21.238;2023-06-10T04:50:04;8.90;;;5.00;;
56581;SDS011;42463;52.214;21.238;2023-06-10T04:52:10;7.60;;;5.50;;
56581;SDS011;42463;52.214;21.238;2023-06-10T04:54:17;8.30;;;5.60;;
56581;SDS011;42463;52.214;21.238;2023-06-10T04:56:22;8.80;;;5.00;;
56581;SDS011;42463;52.214;21.238;2023-06-10T04:58:29;12.20;;;5.80;;
56581;SDS011;42463;52.214;21.238;2023-06-10T05:00:34;6.40;;;5.10;;
56581;SDS011;42463;52.214;21.238;2023-06-10T05:02:40;9.00;;;5.20;;
56581;SDS011;42463;52.214;21.238;2023-06-10T05:04:46;8.40;;;5.10;;
56581;SDS011;42463;52.214;21.238;2023-06-10T05:06:51;9.20;;;5.40;;
56581;SDS011;42463;52.214;21.238;2023-06-10T05:08:57;10.30;;;5.60;;
56581;SDS011;42463;52.214;21.238;2023-06-10T05:11:02;9.70;;;5.60;;
56581;SDS011;42463;52.214;21.238;2023-06-10T05:13:09;7.00;;;5.10;;
56581;SDS011;42463;52.214;21.238;2023-06-10T05:15:14;10.00;;;5.40;;
56581;SDS011;42463;52.214;21.238;2023-06-10T05:17:19;9.90;;;5.40;;
56581;SDS011;42463;52.214;21.238;2023-06-10T05:19:25;6.00;;;4.80;;
56581;SDS011;42463;52.214;21.238;2023-06-10T05:21:31;7.90;;;5.10;;
56581;SDS011;42463;52.214;21.238;2023-06-10T05:23:36;10.20;;;5.10;;
56581;SDS011;42463;52.214;21.238;2023-06-10T05:25:42;6.60;;;4.80;;
56581;SDS011;42463;52.214;21.238;2023-06-10T05:27:47;8.10;;;5.20;;
56581;SDS011;42463;52.214;21.238;2023-06-10T05:29:53;6.50;;;5.20;;
56581;SDS011;42463;52.214;21.238;2023-06-10T05:31:59;11.40;;;5.50;;
56581;SDS011;42463;52.214;21.238;2023-06-10T05:34:06;13.00;;;6.00;;
56581;SDS011;42463;52.214;21.238;2023-06-10T05:36:11;30.40;;;9.10;;
56581;SDS011;42463;52.214;21.238;2023-06-10T05:38:16;34.70;;;10.80;;
56581;SDS011;42463;52.214;21.238;2023-06-10T05:40:22;13.50;;;5.90;;
56581;SDS011;42463;52.214;21.238;2023-06-10T05:42:27;9.50;;;5.30;;
56581;SDS011;42463;52.214;21.238;2023-06-10T05:44:33;6.50;;;5.40;;
56581;SDS011;42463;52.214;21.238;2023-06-10T05:46:38;7.90;;;4.90;;
56581;SDS011;42463;52.214;21.238;2023-06-10T05:48:44;9.00;;;4.90;;
56581;SDS011;42463;52.214;21.238;2023-06-10T05:50:50;8.40;;;5.40;;
56581;SDS011;42463;52.214;21.238;2023-06-10T05:52:56;9.00;;;5.70;;
56581;SDS011;42463;52.214;21.238;2023-06-10T05:55:01;7.00;;;5.20;;
56581;SDS011;42463;52.214;21.238;2023-06-10T05:57:07;7.80;;;5.10;;
56581;SDS011;42463;52.214;21.238;2023-06-10T05:59:14;7.50;;;4.90;;
56581;SDS011;42463;52.214;21.238;2023-06-10T06:01:19;8.40;;;5.00;;
56581;SDS011;42463;52.214;21.238;2023-06-10T06:03:24;10.00;;;5.60;;
56581;SDS011;42463;52.214;21.238;2023-06-10T06:05:31;9.00;;;6.10;;
56581;SDS011;42463;52.214;21.238;2023-06-10T06:07:38;9.50;;;5.30;;
56581;SDS011;42463;52.214;21.238;2023-06-10T06:09:43;6.70;;;5.20;;
56581;SDS011;42463;52.214;21.238;2023-06-10T06:11:48;10.20;;;5.80;;
56581;SDS011;42463;52.214;21.238;2023-06-10T06:13:54;8.60;;;5.40;;
56581;SDS011;42463;52.214;21.238;2023-06-10T06:16:00;7.30;;;5.40;;
56581;SDS011;42463;52.214;21.238;2023-06-10T06:18:05;9.70;;;5.10;;
56581;SDS011;42463;52.214;21.238;2023-06-10T06:20:11;10.10;;;5.50;;
56581;SDS011;42463;52.214;21.238;2023-06-10T06:22:17;7.50;;;5.30;;
56581;SDS011;42463;52.214;21.238;2023-06-10T06:24:24;12.00;;;5.40;;
56581;SDS011;42463;52.214;21.238;2023-06-10T06:26:30;9.40;;;5.50;;
56581;SDS011;42463;52.214;21.238;2023-06-10T06:28:35;7.70;;;4.80;;
56581;SDS011;42463;52.214;21.238;2023-06-10T06:30:41;9.10;;;5.30;;
56581;SDS011;42463;52.214;21.238;2023-06-10T06:32:46;7.30;;;5.10;;
56581;SDS011;42463;52.214;21.238;2023-06-10T06:34:51;7.50;;;5.70;;
56581;SDS011;42463;52.214;21.238;2023-06-10T06:36:57;6.50;;;5.20;;
56581;SDS011;42463;52.214;21.238;2023-06-10T06:39:03;8.70;;;5.10;;
56581;SDS011;42463;52.214;21.238;2023-06-10T06:41:09;7.10;;;5.20;;
56581;SDS011;42463;52.214;21.238;2023-06-10T06:43:14;9.20;;;5.60;;
56581;SDS011;42463;52.214;21.238;2023-06-10T06:45:52;9.00;;;5.30;;
56581;SDS011;42463;52.214;21.238;2023-06-10T06:47:57;9.50;;;5.50;;
56581;SDS011;42463;52.214;21.238;2023-06-10T06:50:03;7.70;;;5.20;;
56581;SDS011;42463;52.214;21.238;2023-06-10T06:52:09;10.40;;;6.10;;
56581;SDS011;42463;52.214;21.238;2023-06-10T06:54:14;9.00;;;5.80;;
56581;SDS011;42463;52.214;21.238;2023-06-10T06:56:20;7.70;;;5.20;;
56581;SDS011;42463;52.214;21.238;2023-06-10T06:58:25;7.40;;;5.20;;
56581;SDS011;42463;52.214;21.238;2023-06-10T07:00:31;10.30;;;6.40;;
56581;SDS011;42463;52.214;21.238;2023-06-10T07:02:36;9.50;;;6.20;;
56581;SDS011;42463;52.214;21.238;2023-06-10T07:04:42;10.50;;;6.00;;
56581;SDS011;42463;52.214;21.238;2023-06-10T07:06:49;8.60;;;5.70;;
56581;SDS011;42463;52.214;21.238;2023-06-10T07:08:58;20.70;;;6.00;;
56581;SDS011;42463;52.214;21.238;2023-06-10T07:11:03;7.80;;;5.50;;
56581;SDS011;42463;52.214;21.238;2023-06-10T07:13:09;9.30;;;5.50;;
56581;SDS011;42463;52.214;21.238;2023-06-10T07:15:14;8.90;;;5.50;;
56581;SDS011;42463;52.214;21.238;2023-06-10T07:17:20;7.80;;;5.40;;
56581;SDS011;42463;52.214;21.238;2023-06-10T07:19:25;6.50;;;5.60;;
56581;SDS011;42463;52.214;21.238;2023-06-10T07:21:31;9.50;;;6.00;;
56581;SDS011;42463;52.214;21.238;2023-06-10T07:23:36;7.60;;;5.90;;
56581;SDS011;42463;52.214;21.238;2023-06-10T07:25:45;9.10;;;5.40;;
56581;SDS011;42463;52.214;21.238;2023-06-10T07:27:50;7.40;;;5.60;;
56581;SDS011;42463;52.214;21.238;2023-06-10T07:29:56;8.40;;;5.80;;
56581;SDS011;42463;52.214;21.238;2023-06-10T07:32:04;7.20;;;5.50;;
56581;SDS011;42463;52.214;21.238;2023-06-10T07:34:10;8.00;;;5.30;;
56581;SDS011;42463;52.214;21.238;2023-06-10T07:36:15;6.10;;;5.20;;
56581;SDS011;42463;52.214;21.238;2023-06-10T07:38:21;9.50;;;5.70;;
56581;SDS011;42463;52.214;21.238;2023-06-10T07:40:26;10.00;;;6.00;;
56581;SDS011;42463;52.214;21.238;2023-06-10T07:42:34;10.50;;;5.60;;
56581;SDS011;42463;52.214;21.238;2023-06-10T07:44:40;8.20;;;5.70;;
56581;SDS011;42463;52.214;21.238;2023-06-10T07:46:46;9.30;;;5.60;;
56581;SDS011;42463;52.214;21.238;2023-06-10T07:48:51;6.70;;;5.50;;
56581;SDS011;42463;52.214;21.238;2023-06-10T07:50:57;9.40;;;5.70;;
56581;SDS011;42463;52.214;21.238;2023-06-10T07:53:02;9.40;;;6.00;;
56581;SDS011;42463;52.214;21.238;2023-06-10T07:55:08;9.70;;;5.60;;
56581;SDS011;42463;52.214;21.238;2023-06-10T07:57:15;8.20;;;5.40;;
56581;SDS011;42463;52.214;21.238;2023-06-10T07:59:20;10.00;;;5.70;;
56581;SDS011;42463;52.214;21.238;2023-06-10T08:01:25;9.80;;;5.60;;
56581;SDS011;42463;52.214;21.238;2023-06-10T08:03:32;8.40;;;5.60;;
56581;SDS011;42463;52.214;21.238;2023-06-10T08:05:38;7.00;;;5.20;;
56581;SDS011;42463;52.214;21.238;2023-06-10T08:07:44;7.70;;;5.60;;
56581;SDS011;42463;52.214;21.238;2023-06-10T08:09:50;8.20;;;5.70;;
56581;SDS011;42463;52.214;21.238;2023-06-10T08:11:55;7.60;;;5.70;;
56581;SDS011;42463;52.214;21.238;2023-06-10T08:14:01;9.60;;;6.10;;
56581;SDS011;42463;52.214;21.238;2023-06-10T08:16:06;8.50;;;6.50;;
56581;SDS011;42463;52.214;21.238;2023-06-10T08:18:12;8.40;;;5.90;;
56581;SDS011;42463;52.214;21.238;2023-06-10T08:20:18;6.90;;;5.40;;
56581;SDS011;42463;52.214;21.238;2023-06-10T08:22:23;7.00;;;5.70;;
56581;SDS011;42463;52.214;21.238;2023-06-10T08:24:28;11.20;;;5.70;;
56581;SDS011;42463;52.214;21.238;2023-06-10T08:26:34;9.10;;;5.70;;
56581;SDS011;42463;52.214;21.238;2023-06-10T08:28:39;8.70;;;5.50;;
